createdAt,value
2018-06-09T00:02:26.195Z,12.73
2018-06-09T00:04:54.176Z,12.20
2018-06-09T00:07:22.128Z,11.93
2018-06-09T00:09:50.086Z,12.83
2018-06-09T00:12:18.008Z,12.17
2018-06-09T00:14:45.959Z,12.63
2018-06-09T00:17:13.913Z,11.70
2018-06-09T00:19:41.948Z,11.67
2018-06-09T00:22:09.892Z,11.50
2018-06-09T00:24:37.850Z,11.57
2018-06-09T00:27:05.826Z,12.13
2018-06-09T00:29:33.762Z,12.53
2018-06-09T00:32:01.738Z,11.67
2018-06-09T00:34:29.656Z,12.20
2018-06-09T00:36:57.616Z,12.93
2018-06-09T00:39:25.580Z,12.23
2018-06-09T00:41:53.543Z,11.90
2018-06-09T00:44:21.488Z,11.07
2018-06-09T00:46:49.460Z,12.20
2018-06-09T00:49:17.445Z,12.00
2018-06-09T00:51:45.376Z,11.57
2018-06-09T00:54:13.309Z,11.67
2018-06-09T00:56:43.959Z,12.17
2018-06-09T00:59:11.916Z,13.20
2018-06-09T01:01:39.922Z,12.47
2018-06-09T01:04:07.856Z,11.93
2018-06-09T01:06:35.902Z,12.80
2018-06-09T01:09:05.544Z,11.57
2018-06-09T01:11:33.488Z,11.80
2018-06-09T01:14:01.454Z,11.17
2018-06-09T01:16:29.695Z,10.55
2018-06-09T01:18:57.664Z,11.53
2018-06-09T01:21:25.628Z,11.27
2018-06-09T01:23:53.596Z,11.47
2018-06-09T01:26:21.612Z,12.10
2018-06-09T01:28:49.620Z,11.50
2018-06-09T01:31:17.435Z,11.60
2018-06-09T01:33:45.405Z,12.13
2018-06-09T01:36:13.353Z,12.33
2018-06-09T01:38:41.322Z,13.00
2018-06-09T01:41:09.297Z,12.90
2018-06-09T01:43:37.243Z,11.90
2018-06-09T01:46:05.222Z,11.90
2018-06-09T01:48:34.598Z,12.98
2018-06-09T01:51:02.517Z,12.13
2018-06-09T01:53:30.493Z,13.33
2018-06-09T01:55:58.462Z,13.53
2018-06-09T01:58:26.422Z,13.10
2018-06-09T02:00:54.359Z,13.10
2018-06-09T02:03:22.435Z,12.57
2018-06-09T02:05:50.430Z,12.77
2018-06-09T02:08:18.428Z,13.23
2018-06-09T02:10:46.327Z,13.57
2018-06-09T02:13:14.290Z,13.87
2018-06-09T02:15:42.312Z,13.87
2018-06-09T02:18:10.280Z,13.30
2018-06-09T02:20:38.236Z,14.87
2018-06-09T02:23:06.199Z,14.07
2018-06-09T02:25:34.135Z,14.43
2018-06-09T02:28:02.186Z,13.53
2018-06-09T02:30:31.055Z,14.30
2018-06-09T02:32:59.016Z,14.60
2018-06-09T02:35:26.962Z,13.90
2018-06-09T02:37:54.904Z,16.00
2018-06-09T02:40:22.839Z,15.03
2018-06-09T02:42:50.765Z,15.30
2018-06-09T02:45:18.816Z,15.20
2018-06-09T02:47:46.760Z,15.60
2018-06-09T02:50:14.703Z,14.43
2018-06-09T02:52:42.671Z,14.77
2018-06-09T02:55:10.619Z,14.80
2018-06-09T02:57:38.617Z,13.77
2018-06-09T03:00:06.581Z,14.50
2018-06-09T03:02:34.556Z,15.00
2018-06-09T03:05:02.540Z,15.00
2018-06-09T03:07:30.594Z,14.27
2018-06-09T03:09:58.562Z,14.87
2018-06-09T03:12:26.508Z,14.30
2018-06-09T03:14:54.476Z,14.50
2018-06-09T03:17:22.489Z,13.97
2018-06-09T03:19:50.435Z,14.40
2018-06-09T03:22:18.489Z,13.87
2018-06-09T03:24:46.499Z,14.77
2018-06-09T03:27:14.420Z,14.07
2018-06-09T03:29:42.372Z,12.90
2018-06-09T03:32:10.299Z,13.13
2018-06-09T03:34:38.264Z,13.37
2018-06-09T03:37:06.295Z,12.80
2018-06-09T03:39:34.403Z,12.43
2018-06-09T03:42:04.921Z,12.40
2018-06-09T03:44:32.908Z,12.50
2018-06-09T03:47:00.858Z,13.23
2018-06-09T03:49:28.796Z,12.33
2018-06-09T03:51:56.848Z,12.63
2018-06-09T03:54:24.768Z,13.33
2018-06-09T03:56:52.715Z,12.90
2018-06-09T03:59:20.755Z,13.00
2018-06-09T04:01:48.691Z,13.20
2018-06-09T04:04:16.643Z,12.47
2018-06-09T04:06:44.659Z,12.93
2018-06-09T04:09:12.691Z,13.00
2018-06-09T04:11:40.607Z,13.23
2018-06-09T04:14:08.532Z,12.87
2018-06-09T04:16:36.464Z,13.17
2018-06-09T04:19:04.540Z,13.10
2018-06-09T04:21:33.235Z,13.70
2018-06-09T04:24:01.209Z,13.23
2018-06-09T04:26:29.193Z,13.03
2018-06-09T04:28:57.152Z,12.40
2018-06-09T04:31:25.141Z,13.43
2018-06-09T04:33:53.077Z,13.20
2018-06-09T04:36:20.956Z,13.57
2018-06-09T04:38:48.927Z,13.10
2018-06-09T04:41:16.864Z,12.90
2018-06-09T04:43:44.979Z,11.70
2018-06-09T04:46:12.940Z,12.13
2018-06-09T04:48:40.884Z,11.70
2018-06-09T04:51:08.912Z,12.50
2018-06-09T04:53:36.972Z,13.93
2018-06-09T04:56:05.001Z,13.13
2018-06-09T04:58:33.896Z,14.00
2018-06-09T05:01:01.892Z,13.83
2018-06-09T05:03:29.844Z,13.57
2018-06-09T05:05:57.781Z,14.73
2018-06-09T05:08:25.825Z,14.57
2018-06-09T05:10:53.751Z,14.70
2018-06-09T05:13:21.739Z,14.90
2018-06-09T05:15:49.726Z,15.67
2018-06-09T05:18:17.702Z,15.43
2018-06-09T05:20:45.615Z,14.90
2018-06-09T05:23:13.584Z,15.10
2018-06-09T05:25:41.567Z,14.37
2018-06-09T05:28:09.572Z,14.38
2018-06-09T05:30:37.595Z,15.53
2018-06-09T05:33:05.596Z,15.20
2018-06-09T05:35:34.259Z,15.13
2018-06-09T05:38:02.236Z,15.13
2018-06-09T05:40:30.277Z,15.13
2018-06-09T05:42:58.295Z,14.20
2018-06-09T05:45:26.264Z,13.50
2018-06-09T05:47:54.321Z,14.43
2018-06-09T05:50:22.304Z,14.30
2018-06-09T05:52:50.252Z,14.50
2018-06-09T05:55:18.260Z,13.90
2018-06-09T05:57:46.190Z,13.90
2018-06-09T06:00:14.161Z,14.00
2018-06-09T06:02:42.104Z,13.33
2018-06-09T06:05:10.052Z,11.90
2018-06-09T06:07:37.936Z,11.43
2018-06-09T06:10:05.888Z,11.27
2018-06-09T06:12:34.808Z,11.70
2018-06-09T06:15:02.817Z,11.50
2018-06-09T06:17:30.770Z,11.70
2018-06-09T06:19:58.754Z,11.17
2018-06-09T06:22:26.772Z,11.63
2018-06-09T06:24:54.755Z,11.90
2018-06-09T06:27:22.675Z,11.93
2018-06-09T06:29:50.634Z,11.83
2018-06-09T06:32:18.704Z,12.93
2018-06-09T06:34:46.707Z,12.20
2018-06-09T06:37:14.651Z,11.40
2018-06-09T06:39:42.617Z,11.73
2018-06-09T06:42:10.561Z,11.00
2018-06-09T06:44:38.554Z,11.80
2018-06-09T06:47:06.521Z,10.73
2018-06-09T06:49:35.392Z,10.85
2018-06-09T06:52:03.483Z,10.67
2018-06-09T06:54:31.552Z,10.63
2018-06-09T06:56:59.533Z,9.90
2018-06-09T06:59:27.445Z,10.17
2018-06-09T07:01:55.400Z,10.73
2018-06-09T07:04:23.344Z,10.17
2018-06-09T07:06:51.301Z,10.33
2018-06-09T07:09:19.248Z,10.30
2018-06-09T07:11:47.236Z,9.97
2018-06-09T07:14:15.200Z,10.23
2018-06-09T07:16:43.284Z,9.10
2018-06-09T07:19:11.242Z,9.10
2018-06-09T07:21:39.198Z,8.50
2018-06-09T07:24:07.168Z,9.70
2018-06-09T07:26:35.756Z,9.23
2018-06-09T07:29:03.713Z,9.57
2018-06-09T07:31:31.660Z,9.67
2018-06-09T07:33:59.657Z,11.33
2018-06-09T07:36:27.650Z,10.17
2018-06-09T07:38:55.574Z,10.33
2018-06-09T07:41:23.564Z,10.87
2018-06-09T07:43:51.502Z,10.10
2018-06-09T07:46:19.509Z,9.67
2018-06-09T07:48:47.506Z,9.27
2018-06-09T07:51:15.440Z,9.73
2018-06-09T07:53:43.512Z,9.30
2018-06-09T07:56:11.491Z,10.23
2018-06-09T07:58:39.438Z,11.97
2018-06-09T08:01:07.424Z,11.93
2018-06-09T08:03:36.129Z,14.70
2018-06-09T08:06:04.097Z,16.10
2018-06-09T08:08:32.050Z,15.30
2018-06-09T08:10:59.992Z,15.03
2018-06-09T08:13:27.969Z,13.90
2018-06-09T08:15:56.031Z,14.27
2018-06-09T08:18:23.987Z,13.40
2018-06-09T08:20:51.977Z,12.97
2018-06-09T08:23:19.943Z,12.23
2018-06-09T08:25:47.931Z,12.83
2018-06-09T08:28:15.908Z,13.00
2018-06-09T08:30:43.953Z,12.23
2018-06-09T08:33:11.918Z,11.40
2018-06-09T08:35:39.880Z,10.47
2018-06-09T08:38:07.820Z,10.83
2018-06-09T08:40:35.773Z,11.30
2018-06-09T08:43:03.721Z,11.50
2018-06-09T08:45:31.725Z,10.30
2018-06-09T08:47:59.808Z,9.57
2018-06-09T08:50:27.740Z,11.13
2018-06-09T08:52:55.763Z,11.30
2018-06-09T08:55:23.857Z,10.30
2018-06-09T08:57:51.825Z,10.43
2018-06-09T09:00:19.823Z,11.37
2018-06-09T09:02:47.801Z,10.30
2018-06-09T09:05:15.750Z,11.63
2018-06-09T09:07:43.713Z,10.00
2018-06-09T09:10:11.732Z,10.40
2018-06-09T09:12:39.723Z,10.47
2018-06-09T09:15:07.660Z,9.80
2018-06-09T09:17:35.685Z,9.70
2018-06-09T09:20:03.588Z,9.63
2018-06-09T09:22:31.555Z,9.40
2018-06-09T09:24:59.629Z,9.40
2018-06-09T09:27:27.577Z,8.63
2018-06-09T09:29:55.550Z,8.80
2018-06-09T09:32:23.575Z,8.67
2018-06-09T09:34:51.552Z,9.30
2018-06-09T09:37:19.475Z,9.10
2018-06-09T09:39:47.402Z,8.30
2018-06-09T09:42:15.370Z,8.50
2018-06-09T09:44:43.373Z,9.10
2018-06-09T09:47:11.347Z,8.80
2018-06-09T09:49:39.289Z,8.50
2018-06-09T09:52:07.941Z,9.30
2018-06-09T09:54:36.138Z,9.27
2018-06-09T09:57:04.175Z,8.40
2018-06-09T09:59:32.124Z,8.40
2018-06-09T10:02:00.050Z,8.57
2018-06-09T10:04:28.018Z,8.00
2018-06-09T10:06:55.788Z,8.37
2018-06-09T10:09:23.606Z,8.03
2018-06-09T10:11:51.549Z,8.00
2018-06-09T10:14:19.480Z,7.70
2018-06-09T10:16:47.407Z,8.00
2018-06-09T10:19:15.341Z,8.30
2018-06-09T10:21:43.278Z,7.77
2018-06-09T10:24:11.382Z,10.40
2018-06-09T10:26:39.329Z,8.30
2018-06-09T10:29:07.335Z,8.20
2018-06-09T10:31:35.317Z,17.70
2018-06-09T10:34:03.301Z,13.33
2018-06-09T10:36:31.280Z,8.20
2018-06-09T10:38:59.306Z,7.07
2018-06-09T10:41:27.246Z,7.27
2018-06-09T10:43:55.231Z,7.20
2018-06-09T10:46:22.983Z,8.00
2018-06-09T10:48:51.941Z,7.00
2018-06-09T10:51:19.990Z,7.57
2018-06-09T10:53:47.924Z,7.20
2018-06-09T10:56:15.863Z,7.77
2018-06-09T10:58:43.832Z,7.60
2018-06-09T11:01:11.777Z,7.63
2018-06-09T11:03:39.693Z,8.03
2018-06-09T11:06:08.209Z,7.47
2018-06-09T11:08:36.148Z,8.00
2018-06-09T11:11:04.126Z,8.00
2018-06-09T11:13:32.131Z,8.30
2018-06-09T11:16:00.113Z,14.47
2018-06-09T11:18:28.047Z,7.93
2018-06-09T11:20:56.001Z,7.63
2018-06-09T11:23:23.944Z,7.60
2018-06-09T11:25:51.899Z,7.60
2018-06-09T11:28:19.927Z,7.80
2018-06-09T11:30:47.899Z,8.30
2018-06-09T11:33:16.088Z,7.80
2018-06-09T11:35:44.004Z,7.60
2018-06-09T11:38:12.050Z,7.60
2018-06-09T11:40:39.985Z,8.60
2018-06-09T11:43:08.010Z,9.00
2018-06-09T11:45:35.956Z,7.67
2018-06-09T11:48:03.985Z,8.20
2018-06-09T11:50:31.912Z,7.97
2018-06-09T11:52:59.836Z,8.10
2018-06-09T11:55:27.907Z,8.70
2018-06-09T11:57:55.884Z,7.93
2018-06-09T12:00:23.856Z,8.57
2018-06-09T12:02:51.783Z,9.07
2018-06-09T12:05:19.731Z,7.37
2018-06-09T12:07:47.680Z,8.27
2018-06-09T12:10:15.686Z,7.80
2018-06-09T12:12:43.638Z,8.30
2018-06-09T12:15:11.666Z,9.07
2018-06-09T12:17:40.353Z,8.10
2018-06-09T12:20:08.440Z,8.27
2018-06-09T12:22:36.383Z,8.40
2018-06-09T12:25:04.407Z,7.90
2018-06-09T12:27:32.377Z,7.80
2018-06-09T12:30:00.321Z,8.50
2018-06-09T12:32:28.247Z,9.03
2018-06-09T12:34:56.233Z,8.23
2018-06-09T12:37:24.306Z,9.50
2018-06-09T12:39:52.285Z,9.27
2018-06-09T12:42:20.255Z,8.20
2018-06-09T12:44:48.324Z,8.47
2018-06-09T12:47:16.331Z,12.27
2018-06-09T12:49:45.238Z,9.40
2018-06-09T12:52:14.717Z,8.80
2018-06-09T12:54:42.712Z,9.50
2018-06-09T12:57:10.967Z,9.60
2018-06-09T12:59:38.996Z,8.57
2018-06-09T13:02:06.942Z,9.00
2018-06-09T13:04:34.876Z,8.83
2018-06-09T13:07:02.849Z,10.90
2018-06-09T13:09:30.828Z,10.37
2018-06-09T13:11:58.767Z,9.10
2018-06-09T13:14:26.731Z,9.50
2018-06-09T13:16:54.777Z,9.37
2018-06-09T13:19:22.761Z,8.70
2018-06-09T13:21:50.724Z,10.10
2018-06-09T13:24:18.665Z,9.87
2018-06-09T13:26:46.723Z,8.20
2018-06-09T13:29:14.691Z,8.50
2018-06-09T13:31:42.687Z,9.23
2018-06-09T13:34:11.592Z,8.30
2018-06-09T13:36:39.524Z,8.27
2018-06-09T13:39:07.945Z,8.80
2018-06-09T13:41:36.085Z,8.97
2018-06-09T13:44:04.040Z,9.00
2018-06-09T13:46:31.985Z,9.33
2018-06-09T13:48:59.969Z,8.90
2018-06-09T13:51:27.963Z,8.40
2018-06-09T13:53:55.907Z,8.58
2018-06-09T13:56:24.004Z,9.37
2018-06-09T13:58:51.957Z,8.13
2018-06-09T14:01:19.908Z,8.70
2018-06-09T14:03:47.852Z,8.80
2018-06-09T14:06:15.811Z,8.67
2018-06-09T14:08:43.698Z,8.00
2018-06-09T14:11:11.987Z,8.43
2018-06-09T14:13:39.963Z,8.00
2018-06-09T14:16:07.922Z,8.70
2018-06-09T14:18:35.871Z,7.90
2018-06-09T14:21:03.845Z,8.43
2018-06-09T14:23:31.907Z,8.10
2018-06-09T14:25:59.860Z,8.53
2018-06-09T14:28:27.865Z,8.80
2018-06-09T14:30:55.829Z,8.80
2018-06-09T14:33:23.825Z,9.60
2018-06-09T14:35:51.802Z,8.70
2018-06-09T14:38:19.751Z,9.13
2018-06-09T14:40:47.681Z,10.00
2018-06-09T14:43:15.641Z,9.83
2018-06-09T14:45:43.607Z,8.97
2018-06-09T14:48:12.424Z,9.37
2018-06-09T14:50:40.359Z,9.60
2018-06-09T14:53:08.325Z,8.93
2018-06-09T14:55:36.301Z,9.23
2018-06-09T14:58:04.289Z,9.33
2018-06-09T15:00:32.336Z,9.07
2018-06-09T15:03:00.327Z,9.27
2018-06-09T15:05:28.355Z,9.53
2018-06-09T15:07:56.292Z,8.63
2018-06-09T15:10:24.222Z,9.43
2018-06-09T15:12:52.173Z,8.73
2018-06-09T15:15:20.159Z,9.70
2018-06-09T15:17:48.113Z,8.60
2018-06-09T15:20:16.123Z,10.20
2018-06-09T15:22:44.258Z,9.97
2018-06-09T15:25:12.086Z,9.27
2018-06-09T15:27:40.131Z,9.80
2018-06-09T15:30:08.208Z,9.90
2018-06-09T15:32:36.173Z,9.33
2018-06-09T15:35:04.243Z,10.20
2018-06-09T15:37:32.210Z,9.67
2018-06-09T15:40:00.135Z,9.67
2018-06-09T15:42:28.116Z,10.13
2018-06-09T15:44:56.273Z,10.40
2018-06-09T15:47:24.201Z,9.40
2018-06-09T15:49:52.157Z,10.93
2018-06-09T15:52:20.155Z,10.10
2018-06-09T15:54:48.124Z,10.23
2018-06-09T15:57:16.051Z,10.47
2018-06-09T15:59:44.065Z,11.00
2018-06-09T16:02:12.068Z,11.37
2018-06-09T16:04:40.017Z,11.80
2018-06-09T16:07:07.984Z,12.80
2018-06-09T16:09:35.943Z,12.50
2018-06-09T16:12:03.908Z,11.10
2018-06-09T16:14:31.864Z,11.43
2018-06-09T16:16:59.824Z,11.17
2018-06-09T16:19:27.825Z,11.73
2018-06-09T16:21:56.009Z,12.57
2018-06-09T16:24:24.052Z,11.90
2018-06-09T16:26:57.814Z,13.90
2018-06-09T16:29:26.001Z,13.13
2018-06-09T16:31:54.099Z,13.87
2018-06-09T16:34:22.096Z,14.70
2018-06-09T16:36:50.149Z,13.23
2018-06-09T16:39:18.206Z,13.10
2018-06-09T16:41:46.030Z,12.10
2018-06-09T16:44:14.818Z,12.10
2018-06-09T16:46:42.792Z,12.43
2018-06-09T16:49:10.849Z,13.97
2018-06-09T16:51:38.861Z,13.33
2018-06-09T16:54:06.961Z,11.37
2018-06-09T16:56:35.012Z,13.77
2018-06-09T16:59:02.976Z,15.50
2018-06-09T17:01:30.929Z,15.10
2018-06-09T17:03:58.905Z,15.17
2018-06-09T17:06:26.824Z,13.90
2018-06-09T17:08:54.775Z,13.40
2018-06-09T17:11:22.804Z,15.80
2018-06-09T17:13:50.778Z,14.23
2018-06-09T17:16:18.761Z,14.17
2018-06-09T17:18:46.703Z,15.20
2018-06-09T17:21:15.651Z,14.33
2018-06-09T17:23:43.591Z,12.90
2018-06-09T17:26:11.526Z,11.90
2018-06-09T17:28:39.482Z,14.53
2018-06-09T17:31:07.618Z,12.03
2018-06-09T17:33:35.586Z,14.07
2018-06-09T17:36:03.524Z,11.77
2018-06-09T17:38:31.430Z,10.77
2018-06-09T17:40:59.379Z,10.83
2018-06-09T17:43:27.387Z,12.63
2018-06-09T17:45:55.427Z,11.27
2018-06-09T17:48:23.416Z,10.93
2018-06-09T17:50:51.434Z,10.93
2018-06-09T17:53:19.410Z,10.67
2018-06-09T17:55:47.462Z,9.87
2018-06-09T17:58:16.232Z,11.30
2018-06-09T18:00:45.193Z,11.57
2018-06-09T18:03:13.284Z,9.83
2018-06-09T18:05:41.273Z,10.50
2018-06-09T18:08:09.325Z,10.40
2018-06-09T18:10:37.343Z,12.80
2018-06-09T18:13:05.315Z,16.33
2018-06-09T18:15:33.292Z,18.40
2018-06-09T18:18:01.380Z,18.43
2018-06-09T18:20:29.357Z,16.43
2018-06-09T18:22:57.384Z,17.50
2018-06-09T18:25:25.267Z,15.87
2018-06-09T18:27:53.267Z,17.30
2018-06-09T18:30:21.232Z,17.03
2018-06-09T18:32:49.260Z,17.40
2018-06-09T18:35:17.204Z,17.43
2018-06-09T18:37:45.228Z,15.07
2018-06-09T18:40:13.179Z,15.57
2018-06-09T18:42:41.192Z,16.23
2018-06-09T18:45:09.248Z,15.73
2018-06-09T18:47:37.269Z,17.40
2018-06-09T18:50:05.442Z,14.53
2018-06-09T18:52:33.453Z,14.47
2018-06-09T18:55:01.393Z,14.27
2018-06-09T18:57:29.381Z,12.90
2018-06-09T18:59:57.373Z,14.77
2018-06-09T19:02:25.457Z,13.50
2018-06-09T19:04:53.233Z,13.10
2018-06-09T19:07:21.170Z,10.60
2018-06-09T19:09:49.096Z,10.40
2018-06-09T19:12:17.482Z,11.10
2018-06-09T19:14:45.497Z,10.30
2018-06-09T19:17:13.432Z,11.90
2018-06-09T19:19:41.423Z,11.40
2018-06-09T19:22:09.561Z,10.70
2018-06-09T19:24:37.511Z,11.20
2018-06-09T19:27:05.468Z,10.07
2018-06-09T19:29:33.449Z,10.87
2018-06-09T19:32:01.504Z,12.90
2018-06-09T19:34:29.517Z,12.47
2018-06-09T19:36:57.500Z,11.47
2018-06-09T19:39:25.473Z,12.20
2018-06-09T19:41:53.436Z,12.50
2018-06-09T19:44:21.238Z,13.10
2018-06-09T19:46:49.276Z,16.40
2018-06-09T19:49:18.180Z,16.70
2018-06-09T19:51:46.204Z,15.57
2018-06-09T19:54:14.144Z,14.30
2018-06-09T19:56:42.111Z,15.73
2018-06-09T19:59:10.076Z,14.00
2018-06-09T20:01:38.045Z,14.00
2018-06-09T20:04:06.169Z,14.93
2018-06-09T20:06:34.103Z,13.90
2018-06-09T20:09:02.092Z,14.90
2018-06-09T20:11:30.057Z,13.67
2018-06-09T20:13:58.003Z,13.60
2018-06-09T20:16:25.953Z,13.67
2018-06-09T20:18:53.914Z,13.80
2018-06-09T20:21:21.985Z,12.47
2018-06-09T20:23:49.918Z,12.47
2018-06-09T20:26:18.654Z,13.00
2018-06-09T20:28:46.637Z,13.17
2018-06-09T20:31:14.621Z,20.87
2018-06-09T20:33:42.572Z,17.73
2018-06-09T20:36:10.361Z,15.70
2018-06-09T20:38:38.308Z,14.87
2018-06-09T20:41:06.237Z,13.20
2018-06-09T20:43:34.188Z,13.33
2018-06-09T20:46:02.170Z,14.40
2018-06-09T20:48:30.228Z,18.33
2018-06-09T20:50:58.123Z,17.13
2018-06-09T20:53:26.151Z,19.57
2018-06-09T20:55:54.119Z,22.00
2018-06-09T20:58:22.102Z,19.53
2018-06-09T21:00:50.036Z,20.30
2018-06-09T21:03:18.060Z,19.10
2018-06-09T21:05:46.021Z,18.73
2018-06-09T21:08:14.753Z,17.53
2018-06-09T21:10:42.731Z,18.00
2018-06-09T21:13:10.750Z,18.30
2018-06-09T21:15:38.636Z,17.90
2018-06-09T21:18:06.672Z,18.63
2018-06-09T21:20:34.656Z,18.77
2018-06-09T21:23:02.583Z,17.00
2018-06-09T21:25:30.526Z,17.50
2018-06-09T21:29:04.620Z,17.20
2018-06-09T21:31:33.404Z,18.10
2018-06-09T21:34:13.096Z,17.57
2018-06-09T21:36:46.563Z,17.63
2018-06-09T21:40:18.950Z,18.30
2018-06-09T21:42:52.277Z,15.90
2018-06-09T21:45:24.148Z,16.48
2018-06-09T21:47:54.854Z,15.28
2018-06-09T21:50:22.954Z,15.50
2018-06-09T21:52:50.913Z,16.27
2018-06-09T21:55:18.896Z,15.87
2018-06-09T21:57:46.860Z,14.73
2018-06-09T22:00:14.851Z,16.15
2018-06-09T22:02:42.888Z,14.87
2018-06-09T22:05:10.677Z,16.20
2018-06-09T22:07:38.640Z,22.70
2018-06-09T22:10:06.589Z,22.03
2018-06-09T22:12:34.572Z,21.37
2018-06-09T22:15:02.501Z,20.57
2018-06-09T22:17:30.471Z,21.10
2018-06-09T22:19:58.432Z,19.27
2018-06-09T22:22:26.403Z,19.23
2018-06-09T22:24:54.348Z,19.43
2018-06-09T22:27:22.289Z,18.90
2018-06-09T22:29:50.312Z,21.23
2018-06-09T22:32:18.394Z,20.13
2018-06-09T22:34:46.374Z,21.07
2018-06-09T22:37:14.370Z,20.70
2018-06-09T22:39:42.503Z,19.67
2018-06-09T22:42:10.484Z,23.57
2018-06-09T22:44:38.403Z,21.27
2018-06-09T22:47:06.345Z,18.37
2018-06-09T22:49:34.365Z,16.90
2018-06-09T22:52:02.424Z,16.40
2018-06-09T22:54:30.540Z,16.60
2018-06-09T22:56:58.614Z,16.40
2018-06-09T22:59:26.684Z,15.37
2018-06-09T23:01:54.556Z,15.60
2018-06-09T23:04:22.540Z,16.17
2018-06-09T23:06:50.500Z,16.23
2018-06-09T23:09:18.513Z,14.60
2018-06-09T23:11:46.485Z,13.70
2018-06-09T23:14:14.485Z,14.93
2018-06-09T23:16:42.584Z,17.27
2018-06-09T23:19:10.616Z,15.90
2018-06-09T23:21:38.628Z,15.47
2018-06-09T23:24:06.583Z,14.90
2018-06-09T23:26:34.524Z,16.43
2018-06-09T23:29:02.487Z,17.13
2018-06-09T23:31:30.453Z,18.60
2018-06-09T23:33:58.684Z,16.33
2018-06-09T23:36:26.825Z,16.70
2018-06-09T23:38:54.754Z,16.90
2018-06-09T23:41:22.794Z,16.60
2018-06-09T23:43:50.746Z,15.57
2018-06-09T23:46:18.705Z,16.20
2018-06-09T23:48:46.685Z,14.50
2018-06-09T23:51:14.646Z,16.37
2018-06-09T23:53:42.636Z,17.40
2018-06-09T23:56:10.671Z,15.47
2018-06-09T23:58:38.649Z,15.50
